createdAt,value
2017-10-15T00:00:17.109Z,87.49
2017-10-15T00:02:46.122Z,86.96
2017-10-15T00:05:14.376Z,87.01
2017-10-15T00:07:43.403Z,86.95
2017-10-15T00:10:11.651Z,86.75
2017-10-15T00:12:39.909Z,88.10
2017-10-15T00:15:08.929Z,88.05
2017-10-15T00:17:37.190Z,88.84
2017-10-15T00:20:05.436Z,89.15
2017-10-15T00:22:33.696Z,89.40
2017-10-15T00:25:01.947Z,89.35
2017-10-15T00:27:30.208Z,89.50
2017-10-15T00:29:58.454Z,88.64
2017-10-15T00:32:27.481Z,88.67
2017-10-15T00:34:55.723Z,89.22
2017-10-15T00:37:24.747Z,88.29
2017-10-15T00:39:52.995Z,88.02
2017-10-15T00:42:22.019Z,87.72
2017-10-15T00:44:50.274Z,87.91
2017-10-15T00:47:19.287Z,87.44
2017-10-15T00:49:47.591Z,86.94
2017-10-15T00:52:15.853Z,87.03
2017-10-15T00:54:44.109Z,86.70
2017-10-15T00:57:12.357Z,86.21
2017-10-15T00:59:41.375Z,86.39
2017-10-15T01:02:09.631Z,86.01
2017-10-15T01:04:38.647Z,85.94
2017-10-15T01:07:06.901Z,85.91
2017-10-15T01:09:35.160Z,85.94
2017-10-15T01:12:04.187Z,85.40
2017-10-15T01:14:32.438Z,85.72
2017-10-15T01:17:01.471Z,85.34
2017-10-15T01:19:29.717Z,85.21
2017-10-15T01:21:57.976Z,84.57
2017-10-15T01:24:26.993Z,84.65
2017-10-15T01:26:55.253Z,84.95
2017-10-15T01:29:24.274Z,85.01
2017-10-15T01:31:52.534Z,84.99
2017-10-15T01:34:20.782Z,85.14
2017-10-15T01:36:49.057Z,85.09
2017-10-15T01:39:17.306Z,85.50
2017-10-15T01:41:45.563Z,86.01
2017-10-15T01:44:13.814Z,86.48
2017-10-15T01:46:42.069Z,86.79
2017-10-15T01:49:11.094Z,86.73
2017-10-15T01:51:39.342Z,86.75
2017-10-15T01:54:08.368Z,86.76
2017-10-15T01:56:36.611Z,86.57
2017-10-15T01:59:05.644Z,86.39
2017-10-15T02:01:33.884Z,86.43
2017-10-15T02:04:02.901Z,86.49
2017-10-15T02:06:31.159Z,87.25
2017-10-15T02:08:59.414Z,87.87
2017-10-15T02:11:28.438Z,88.33
2017-10-15T02:13:56.686Z,89.16
2017-10-15T02:16:25.694Z,89.43
2017-10-15T02:18:53.948Z,89.65
2017-10-15T02:21:22.958Z,90.09
2017-10-15T02:23:51.977Z,90.36
2017-10-15T02:26:20.222Z,90.59
2017-10-15T02:28:49.242Z,90.75
2017-10-15T02:31:17.485Z,91.02
2017-10-15T02:33:46.505Z,91.15
2017-10-15T02:36:14.754Z,91.13
2017-10-15T02:38:43.773Z,91.18
2017-10-15T02:41:12.017Z,91.28
2017-10-15T02:43:40.277Z,91.37
2017-10-15T02:46:08.518Z,91.46
2017-10-15T02:48:36.773Z,91.55
2017-10-15T02:51:05.022Z,91.65
2017-10-15T02:53:34.034Z,91.68
2017-10-15T02:56:02.289Z,91.78
2017-10-15T02:58:31.297Z,91.80
2017-10-15T03:00:59.551Z,91.81
2017-10-15T03:03:28.572Z,91.78
2017-10-15T03:05:56.809Z,91.79
2017-10-15T03:08:25.057Z,91.76
2017-10-15T03:10:53.300Z,91.67
2017-10-15T03:13:21.553Z,91.67
2017-10-15T03:15:50.566Z,91.45
2017-10-15T03:18:18.817Z,91.45
2017-10-15T03:20:47.831Z,91.41
2017-10-15T03:23:16.087Z,91.38
2017-10-15T03:25:45.098Z,91.44
2017-10-15T03:28:13.349Z,91.63
2017-10-15T03:30:42.372Z,91.74
2017-10-15T03:33:10.624Z,91.85
2017-10-15T03:35:39.633Z,91.90
2017-10-15T03:38:07.889Z,91.92
2017-10-15T03:40:36.898Z,91.95
2017-10-15T03:43:05.910Z,91.90
2017-10-15T03:45:34.158Z,91.88
2017-10-15T03:48:03.165Z,91.85
2017-10-15T03:50:31.405Z,91.82
2017-10-15T03:52:59.659Z,91.70
2017-10-15T03:55:27.901Z,91.51
2017-10-15T03:57:56.143Z,91.26
2017-10-15T04:00:25.158Z,91.16
2017-10-15T04:02:53.405Z,91.16
2017-10-15T04:05:21.641Z,91.17
2017-10-15T04:07:49.888Z,91.27
2017-10-15T04:10:18.130Z,91.46
2017-10-15T04:12:46.382Z,91.47
2017-10-15T04:15:14.622Z,91.41
2017-10-15T04:17:42.869Z,91.37
2017-10-15T04:20:11.877Z,91.28
2017-10-15T04:22:40.138Z,91.32
2017-10-15T04:25:09.151Z,91.27
2017-10-15T04:27:37.410Z,91.30
2017-10-15T04:30:06.436Z,91.31
2017-10-15T04:32:34.694Z,91.31
2017-10-15T04:35:02.935Z,91.47
2017-10-15T04:37:31.177Z,91.44
2017-10-15T04:39:59.429Z,91.35
2017-10-15T04:42:27.681Z,91.36
2017-10-15T04:44:56.702Z,91.29
2017-10-15T04:47:24.942Z,91.26
2017-10-15T04:49:53.958Z,91.21
2017-10-15T04:52:22.198Z,91.10
2017-10-15T04:54:50.449Z,90.89
2017-10-15T04:57:18.693Z,90.64
2017-10-15T04:59:46.949Z,90.58
2017-10-15T05:02:15.194Z,90.42
2017-10-15T05:04:43.437Z,89.60
2017-10-15T05:07:11.685Z,89.96
2017-10-15T05:09:39.939Z,89.97
2017-10-15T05:12:08.942Z,89.96
2017-10-15T05:14:37.954Z,89.68
2017-10-15T05:17:06.203Z,89.75
2017-10-15T05:19:35.214Z,89.31
2017-10-15T05:22:03.455Z,89.68
2017-10-15T05:24:31.705Z,89.49
2017-10-15T05:26:59.947Z,89.29
2017-10-15T05:29:28.196Z,89.56
2017-10-15T05:31:57.198Z,89.35
2017-10-15T05:34:26.206Z,89.33
2017-10-15T05:36:54.450Z,89.05
2017-10-15T05:39:23.461Z,89.02
2017-10-15T05:41:51.701Z,89.43
2017-10-15T05:44:19.958Z,90.16
2017-10-15T05:46:48.206Z,90.77
2017-10-15T05:49:16.462Z,91.21
2017-10-15T05:51:44.723Z,91.62
2017-10-15T05:54:12.962Z,91.82
2017-10-15T05:56:41.213Z,91.93
2017-10-15T05:59:09.472Z,92.02
2017-10-15T06:01:37.716Z,92.04
2017-10-15T06:04:05.966Z,92.04
2017-10-15T06:06:34.215Z,92.01
2017-10-15T06:09:02.471Z,91.98
2017-10-15T06:11:30.713Z,91.87
2017-10-15T06:13:58.970Z,91.74
2017-10-15T06:16:27.216Z,91.70
2017-10-15T06:18:55.468Z,91.67
2017-10-15T06:21:23.702Z,91.66
2017-10-15T06:23:51.959Z,91.39
2017-10-15T06:26:20.198Z,91.35
2017-10-15T06:28:48.445Z,91.31
2017-10-15T06:31:17.456Z,91.05
2017-10-15T06:33:46.466Z,90.73
2017-10-15T06:36:14.704Z,90.87
2017-10-15T06:38:43.716Z,90.77
2017-10-15T06:41:11.961Z,90.72
2017-10-15T06:43:40.217Z,90.82
2017-10-15T06:46:08.468Z,90.85
2017-10-15T06:48:36.718Z,90.81
2017-10-15T06:51:04.971Z,90.77
2017-10-15T06:53:33.226Z,90.55
2017-10-15T06:56:01.468Z,90.35
2017-10-15T06:58:29.709Z,90.22
2017-10-15T07:00:58.725Z,90.06
2017-10-15T07:03:26.984Z,89.89
2017-10-15T07:05:55.236Z,89.75
2017-10-15T07:08:23.479Z,89.61
2017-10-15T07:10:51.722Z,89.46
2017-10-15T07:13:19.993Z,89.40
2017-10-15T07:15:48.247Z,89.07
2017-10-15T07:18:17.255Z,88.67
2017-10-15T07:20:46.274Z,88.87
2017-10-15T07:23:14.526Z,88.72
2017-10-15T07:25:43.590Z,88.67
2017-10-15T07:28:13.105Z,89.71
2017-10-15T07:30:42.130Z,89.77
2017-10-15T07:33:10.670Z,89.38
2017-10-15T07:35:38.922Z,88.96
2017-10-15T07:38:07.943Z,88.78
2017-10-15T07:40:36.203Z,88.54
2017-10-15T07:43:05.229Z,88.38
2017-10-15T07:45:33.479Z,88.13
2017-10-15T07:48:01.731Z,87.50
2017-10-15T07:50:30.045Z,88.43
2017-10-15T07:52:59.063Z,88.55
2017-10-15T07:55:27.327Z,88.40
2017-10-15T07:57:56.337Z,88.51
2017-10-15T08:00:24.594Z,87.90
2017-10-15T08:02:53.610Z,87.51
2017-10-15T08:05:21.872Z,87.61
2017-10-15T08:07:50.883Z,87.76
2017-10-15T08:10:19.141Z,87.29
2017-10-15T08:12:47.390Z,86.81
2017-10-15T08:15:15.649Z,86.01
2017-10-15T08:17:43.898Z,85.85
2017-10-15T08:20:12.155Z,85.88
2017-10-15T08:22:40.408Z,85.31
2017-10-15T08:25:09.425Z,85.00
2017-10-15T08:27:37.678Z,85.10
2017-10-15T08:30:06.701Z,84.90
2017-10-15T08:32:34.950Z,84.66
2017-10-15T08:35:03.212Z,83.87
2017-10-15T08:37:32.233Z,84.64
2017-10-15T08:40:00.498Z,84.86
2017-10-15T08:42:29.510Z,85.13
2017-10-15T08:44:57.770Z,85.78
2017-10-15T08:47:26.022Z,85.37
2017-10-15T08:49:55.051Z,84.97
2017-10-15T08:52:23.296Z,83.98
2017-10-15T08:54:52.323Z,83.87
2017-10-15T08:57:20.578Z,83.29
2017-10-15T08:59:48.838Z,83.09
2017-10-15T09:02:17.857Z,82.56
2017-10-15T09:04:46.115Z,81.89
2017-10-15T09:07:15.136Z,82.03
2017-10-15T09:09:43.398Z,81.55
2017-10-15T09:12:12.421Z,80.73
2017-10-15T09:14:41.446Z,80.61
2017-10-15T09:17:09.695Z,79.85
2017-10-15T09:19:38.722Z,80.10
2017-10-15T09:22:06.970Z,80.37
2017-10-15T09:24:35.994Z,79.80
2017-10-15T09:27:04.247Z,79.28
2017-10-15T09:29:33.273Z,78.59
2017-10-15T09:32:01.517Z,78.23
2017-10-15T09:34:29.781Z,77.40
2017-10-15T09:36:58.798Z,77.38
2017-10-15T09:39:27.062Z,77.01
2017-10-15T09:41:55.313Z,76.57
2017-10-15T09:44:23.577Z,76.12
2017-10-15T09:46:51.810Z,75.50
2017-10-15T09:49:20.066Z,75.49
2017-10-15T09:51:48.318Z,75.10
2017-10-15T09:54:16.575Z,74.37
2017-10-15T09:56:44.837Z,74.71
2017-10-15T09:59:13.084Z,73.59
2017-10-15T10:01:41.339Z,73.69
2017-10-15T10:04:09.595Z,72.80
2017-10-15T10:06:37.839Z,73.42
2017-10-15T10:09:06.087Z,71.79
2017-10-15T10:11:34.342Z,72.69
2017-10-15T10:14:03.355Z,70.79
2017-10-15T10:16:31.601Z,72.83
2017-10-15T10:19:00.614Z,69.90
2017-10-15T10:21:28.865Z,70.04
2017-10-15T10:23:57.882Z,69.34
2017-10-15T10:26:26.137Z,67.53
2017-10-15T10:28:55.165Z,69.54
2017-10-15T10:31:23.417Z,68.57
2017-10-15T10:33:51.669Z,68.48
2017-10-15T10:36:19.925Z,68.76
2017-10-15T10:38:48.172Z,69.26
2017-10-15T10:41:16.429Z,66.75
2017-10-15T10:43:44.666Z,61.16
2017-10-15T10:46:12.918Z,57.10
2017-10-15T10:48:41.162Z,54.90
2017-10-15T10:51:09.417Z,52.82
2017-10-15T10:53:37.665Z,53.61
2017-10-15T10:56:05.927Z,53.19
2017-10-15T10:58:34.174Z,50.79
2017-10-15T11:01:02.434Z,48.46
2017-10-15T11:03:30.674Z,50.52
2017-10-15T11:05:59.694Z,49.21
2017-10-15T11:08:27.933Z,51.81
2017-10-15T11:10:56.183Z,50.57
2017-10-15T11:13:24.449Z,49.45
2017-10-15T11:15:52.686Z,49.15
2017-10-15T11:18:21.701Z,48.64
2017-10-15T11:20:49.952Z,47.43
2017-10-15T11:23:18.974Z,47.26
2017-10-15T11:25:47.238Z,43.56
2017-10-15T11:28:15.485Z,43.39
2017-10-15T11:30:43.733Z,45.81
2017-10-15T11:33:11.989Z,48.70
2017-10-15T11:35:40.234Z,45.95
2017-10-15T11:38:08.490Z,45.51
2017-10-15T11:40:37.513Z,46.77
2017-10-15T11:43:05.764Z,47.18
2017-10-15T11:45:34.787Z,46.78
2017-10-15T11:48:03.030Z,43.85
2017-10-15T11:53:06.671Z,42.98
2017-10-15T11:55:34.925Z,41.76
2017-10-15T11:58:03.938Z,44.08
2017-10-15T12:00:32.194Z,43.33
2017-10-15T12:03:01.204Z,42.69
2017-10-15T12:05:29.458Z,41.36
2017-10-15T12:07:58.473Z,44.65
2017-10-15T12:10:26.714Z,42.72
2017-10-15T12:12:54.962Z,39.79
2017-10-15T12:15:23.220Z,41.04
2017-10-15T12:17:51.468Z,41.69
2017-10-15T12:20:19.726Z,42.49
2017-10-15T12:22:48.744Z,40.64
2017-10-15T12:25:16.995Z,38.98
2017-10-15T12:27:45.998Z,40.39
2017-10-15T12:30:14.260Z,41.02
2017-10-15T12:32:43.262Z,38.19
2017-10-15T12:35:12.303Z,37.84
2017-10-15T12:37:41.321Z,36.04
2017-10-15T12:40:09.557Z,36.14
2017-10-15T12:42:37.810Z,37.35
2017-10-15T12:45:06.058Z,38.21
2017-10-15T12:47:34.314Z,37.90
2017-10-15T12:50:02.554Z,41.50
2017-10-15T12:52:30.801Z,41.15
2017-10-15T12:54:59.816Z,39.75
2017-10-15T12:57:28.061Z,38.07
2017-10-15T12:59:57.067Z,35.43
2017-10-15T13:02:26.082Z,39.73
2017-10-15T13:04:54.322Z,44.24
2017-10-15T13:07:23.325Z,40.05
2017-10-15T13:09:52.343Z,39.96
2017-10-15T13:12:20.588Z,41.59
2017-10-15T13:14:49.590Z,39.45
2017-10-15T13:17:17.841Z,39.38
2017-10-15T13:19:46.082Z,40.68
2017-10-15T13:22:14.337Z,42.44
2017-10-15T13:24:42.590Z,43.40
2017-10-15T13:27:11.597Z,41.86
2017-10-15T13:29:39.847Z,43.04
2017-10-15T13:32:08.862Z,41.19
2017-10-15T13:34:37.107Z,41.89
2017-10-15T13:37:05.353Z,42.74
2017-10-15T13:39:33.593Z,41.20
2017-10-15T13:42:01.847Z,42.74
2017-10-15T13:44:30.858Z,40.08
2017-10-15T13:46:59.114Z,39.14
2017-10-15T13:49:28.118Z,40.83
2017-10-15T13:51:56.367Z,42.60
2017-10-15T13:54:24.621Z,41.13
2017-10-15T13:56:52.882Z,39.45
2017-10-15T13:59:21.143Z,42.00
2017-10-15T14:01:49.375Z,42.52
2017-10-15T14:04:18.378Z,40.48
2017-10-15T14:06:47.398Z,40.83
2017-10-15T14:09:15.645Z,42.32
2017-10-15T14:11:44.665Z,42.61
2017-10-15T14:14:12.905Z,42.46
2017-10-15T14:16:41.925Z,42.13
2017-10-15T14:19:10.173Z,41.83
2017-10-15T14:21:39.191Z,42.38
2017-10-15T14:24:07.431Z,42.64
2017-10-15T14:26:35.685Z,41.18
2017-10-15T14:29:03.930Z,42.85
2017-10-15T14:31:32.190Z,42.85
2017-10-15T14:34:00.434Z,41.77
2017-10-15T14:36:28.690Z,43.48
2017-10-15T14:38:56.933Z,45.50
2017-10-15T14:41:25.185Z,44.43
2017-10-15T14:43:53.437Z,45.05
2017-10-15T14:46:22.453Z,45.49
2017-10-15T14:48:50.702Z,45.18
2017-10-15T14:51:18.955Z,43.30
2017-10-15T14:53:47.201Z,41.85
2017-10-15T14:56:15.445Z,42.84
2017-10-15T14:58:44.470Z,41.87
2017-10-15T15:01:12.726Z,45.08
2017-10-15T15:03:41.736Z,45.51
2017-10-15T15:06:09.992Z,46.24
2017-10-15T15:08:39.003Z,46.14
2017-10-15T15:11:07.257Z,45.23
2017-10-15T15:13:35.510Z,46.02
2017-10-15T15:16:03.768Z,47.78
2017-10-15T15:18:32.010Z,45.69
2017-10-15T15:21:00.270Z,47.03
2017-10-15T15:23:28.520Z,47.34
2017-10-15T15:25:57.543Z,54.08
2017-10-15T15:28:25.786Z,58.29
2017-10-15T15:30:54.808Z,58.27
2017-10-15T15:33:23.053Z,59.40
2017-10-15T15:35:52.062Z,59.74
2017-10-15T15:38:21.079Z,59.80
2017-10-15T15:40:49.319Z,60.14
2017-10-15T15:43:18.332Z,60.13
2017-10-15T15:45:46.583Z,60.78
2017-10-15T15:48:15.603Z,60.83
2017-10-15T15:50:43.846Z,61.16
2017-10-15T15:53:13.683Z,61.36
2017-10-15T15:55:41.920Z,61.79
2017-10-15T15:58:10.932Z,61.62
2017-10-15T16:00:39.938Z,62.05
2017-10-15T16:03:08.183Z,62.52
2017-10-15T16:05:37.197Z,63.02
2017-10-15T16:08:05.449Z,63.42
2017-10-15T16:10:34.459Z,63.95
2017-10-15T16:13:03.466Z,64.17
2017-10-15T16:15:31.714Z,64.79
2017-10-15T16:18:00.730Z,65.02
2017-10-15T16:20:28.979Z,65.63
2017-10-15T16:22:57.998Z,65.95
2017-10-15T16:25:26.243Z,66.89
2017-10-15T16:27:54.485Z,67.51
2017-10-15T16:30:22.730Z,67.96
2017-10-15T16:32:50.999Z,68.30
2017-10-15T16:35:19.246Z,68.50
2017-10-15T16:37:47.498Z,68.69
2017-10-15T16:40:15.739Z,70.11
2017-10-15T16:42:43.987Z,71.15
2017-10-15T16:45:12.998Z,72.09
2017-10-15T16:47:41.245Z,71.85
2017-10-15T16:50:10.255Z,72.24
2017-10-15T16:52:39.267Z,72.42
2017-10-15T16:55:07.502Z,72.07
2017-10-15T16:57:36.509Z,72.18
2017-10-15T17:00:05.518Z,72.06
2017-10-15T17:02:33.765Z,72.30
2017-10-15T17:05:02.791Z,72.36
2017-10-15T17:07:31.045Z,73.16
2017-10-15T17:10:00.046Z,72.94
2017-10-15T17:12:28.314Z,72.49
2017-10-15T17:14:57.306Z,72.09
2017-10-15T17:17:26.329Z,72.13
2017-10-15T17:19:54.917Z,72.36
2017-10-15T17:22:23.166Z,72.49
2017-10-15T17:24:51.406Z,72.72
2017-10-15T17:27:19.655Z,72.94
2017-10-15T17:29:47.905Z,73.18
2017-10-15T17:32:16.154Z,73.66
2017-10-15T17:34:45.158Z,74.02
2017-10-15T17:37:14.174Z,74.19
2017-10-15T17:39:42.415Z,74.37
2017-10-15T17:42:11.438Z,74.90
2017-10-15T17:44:41.172Z,74.76
2017-10-15T17:47:33.241Z,74.87
2017-10-15T17:50:06.870Z,75.25
2017-10-15T17:52:35.261Z,75.05
2017-10-15T17:55:03.509Z,75.48
2017-10-15T17:57:31.767Z,75.17
2017-10-15T18:00:00.018Z,75.25
2017-10-15T18:02:31.434Z,75.46
2017-10-15T18:04:59.683Z,75.90
2017-10-15T18:07:27.951Z,75.90
2017-10-15T18:09:56.181Z,76.37
2017-10-15T18:12:24.437Z,76.38
2017-10-15T18:14:52.687Z,76.88
2017-10-15T18:17:20.929Z,77.30
2017-10-15T18:19:49.174Z,77.70
2017-10-15T18:22:17.469Z,77.87
2017-10-15T18:24:46.482Z,77.90
2017-10-15T18:27:14.732Z,78.21
2017-10-15T18:29:44.026Z,78.39
2017-10-15T18:32:12.275Z,78.42
2017-10-15T18:34:40.525Z,78.75
2017-10-15T18:37:08.782Z,78.86
2017-10-15T18:39:37.037Z,79.05
2017-10-15T18:42:06.049Z,79.19
2017-10-15T18:44:34.321Z,79.36
2017-10-15T18:47:03.328Z,79.11
2017-10-15T18:49:31.578Z,79.19
2017-10-15T18:52:00.603Z,79.28
2017-10-15T18:54:28.859Z,79.11
2017-10-15T18:56:57.878Z,79.21
2017-10-15T18:59:26.176Z,79.33
2017-10-15T19:01:55.221Z,78.92
2017-10-15T19:04:23.483Z,79.07
2017-10-15T19:06:52.503Z,80.26
2017-10-15T19:09:20.790Z,80.25
2017-10-15T19:11:49.038Z,80.26
2017-10-15T19:14:18.062Z,80.16
2017-10-15T19:16:46.311Z,80.14
2017-10-15T19:19:14.577Z,80.07
2017-10-15T19:21:43.585Z,80.12
2017-10-15T19:24:11.841Z,79.90
2017-10-15T19:26:40.864Z,79.61
2017-10-15T19:29:09.123Z,79.74
2017-10-15T19:31:37.370Z,79.87
2017-10-15T19:34:05.630Z,80.09
2017-10-15T19:36:33.881Z,79.93
2017-10-15T19:39:02.137Z,80.50
2017-10-15T19:41:30.389Z,80.54
2017-10-15T19:43:59.417Z,81.15
2017-10-15T19:46:27.663Z,81.66
2017-10-15T19:48:56.694Z,82.54
2017-10-15T19:51:24.939Z,82.85
2017-10-15T19:53:53.204Z,82.97
2017-10-15T19:56:22.227Z,83.23
2017-10-15T19:58:50.483Z,83.30
2017-10-15T20:01:18.735Z,83.08
2017-10-15T20:03:46.991Z,83.20
2017-10-15T20:06:15.254Z,83.55
2017-10-15T20:08:44.275Z,83.75
2017-10-15T20:11:12.527Z,84.09
2017-10-15T20:13:40.785Z,84.08
2017-10-15T20:16:09.803Z,84.57
2017-10-15T20:18:38.062Z,84.55
2017-10-15T20:21:07.089Z,85.63
2017-10-15T20:23:35.341Z,84.80
2017-10-15T20:26:03.601Z,85.32
2017-10-15T20:28:32.622Z,85.47
2017-10-15T20:31:00.877Z,85.38
2017-10-15T20:33:29.899Z,85.61
2017-10-15T20:35:58.158Z,85.72
2017-10-15T20:38:26.416Z,85.58
2017-10-15T20:40:54.670Z,85.87
2017-10-15T20:43:22.937Z,85.64
2017-10-15T20:45:51.197Z,85.95
2017-10-15T20:48:19.449Z,86.41
2017-10-15T20:50:47.705Z,86.74
2017-10-15T20:53:16.731Z,86.65
2017-10-15T20:55:44.986Z,85.27
2017-10-15T20:58:13.250Z,85.05
2017-10-15T21:00:42.263Z,85.51
2017-10-15T21:03:10.530Z,85.60
2017-10-15T21:05:39.545Z,86.25
2017-10-15T21:08:07.815Z,86.95
2017-10-15T21:10:36.066Z,87.01
2017-10-15T21:13:05.091Z,87.08
2017-10-15T21:15:33.350Z,87.03
2017-10-15T21:18:01.623Z,87.33
2017-10-15T21:20:29.879Z,87.70
2017-10-15T21:22:58.902Z,87.83
2017-10-15T21:25:27.154Z,87.87
2017-10-15T21:27:56.191Z,87.97
2017-10-15T21:30:24.443Z,87.99
2017-10-15T21:32:52.694Z,88.17
2017-10-15T21:35:21.725Z,88.21
2017-10-15T21:37:50.016Z,88.07
2017-10-15T21:40:18.274Z,87.80
2017-10-15T21:42:46.530Z,87.96
2017-10-15T21:45:14.781Z,87.72
2017-10-15T21:47:43.924Z,87.66
2017-10-15T21:50:12.169Z,88.02
2017-10-15T21:52:40.418Z,88.68
2017-10-15T21:55:09.444Z,89.47
2017-10-15T21:57:37.725Z,89.37
2017-10-15T22:00:06.025Z,89.26
2017-10-15T22:02:34.284Z,89.31
2017-10-15T22:05:02.648Z,89.26
2017-10-15T22:07:30.902Z,89.96
2017-10-15T22:09:59.934Z,90.11
2017-10-15T22:12:28.190Z,90.02
2017-10-15T22:14:56.445Z,90.06
2017-10-15T22:17:25.462Z,89.98
2017-10-15T22:19:53.726Z,90.49
2017-10-15T22:22:25.957Z,90.52
2017-10-15T22:24:54.214Z,90.52
2017-10-15T22:27:22.473Z,90.43
2017-10-15T22:29:50.751Z,90.38
2017-10-15T22:32:37.468Z,90.44
2017-10-15T22:35:05.733Z,90.39
2017-10-15T22:37:33.990Z,90.45
2017-10-15T22:40:02.255Z,90.54
2017-10-15T22:42:31.271Z,90.49
2017-10-15T22:45:01.102Z,90.38
2017-10-15T22:47:29.345Z,90.28
2017-10-15T22:49:57.607Z,90.20
2017-10-15T22:52:26.623Z,90.15
2017-10-15T22:54:54.883Z,90.15
2017-10-15T22:57:23.138Z,90.18
2017-10-15T22:59:52.165Z,90.16
2017-10-15T23:02:20.424Z,90.07
2017-10-15T23:04:49.451Z,90.15
2017-10-15T23:07:17.704Z,89.87
2017-10-15T23:09:45.970Z,90.63
2017-10-15T23:12:14.997Z,90.82
2017-10-15T23:14:43.350Z,90.63
2017-10-15T23:17:11.613Z,90.91
2017-10-15T23:19:40.645Z,90.81
2017-10-15T23:22:08.908Z,90.64
2017-10-15T23:24:37.163Z,90.65
2017-10-15T23:27:05.414Z,90.71
2017-10-15T23:29:33.682Z,90.64
2017-10-15T23:32:01.926Z,90.62
2017-10-15T23:34:30.187Z,90.22
2017-10-15T23:36:58.441Z,89.86
2017-10-15T23:39:26.702Z,90.08
2017-10-15T23:41:55.723Z,90.30
2017-10-15T23:44:23.982Z,90.57
2017-10-15T23:46:53.002Z,90.84
2017-10-15T23:49:21.267Z,90.77
2017-10-15T23:51:49.519Z,90.70
2017-10-15T23:54:18.554Z,90.64
2017-10-15T23:56:46.806Z,90.12
2017-10-15T23:59:15.070Z,89.57
